CFG6HF GCLP-EDDF
Flight info
| Callsign | CFG6HF |
|---|---|
| Flight time | N/A |
| Altitude | 34000 |
| Route | VAST8A VASTO UN858 AKUDA/N0450F360 DCT PESAS DCT OSLEP DCT OXACA DCT HIJ DCT CRISA DCT INPAN DCT VTB DCT PALIO DCT SEGRE DCT YAKXU DCT RONNY DCT TOPTU DCT TOU DCT GAI DCT MEN DCT NINUN DCT LATAM DCT ETREK DCT LTP DCT SOPLO DCT OMASI DCT KINNI DCT SOSAL DCT KORED DCT BERSU DCT DITON/N0442F370 DCT LADOL/N0441F360 T163 EMPAX EMPAX5B |
| Aircraft | A320/M-SDE3FGHIRWY/LB1 |
Departure
| Time | 2026-05-04 06:57 |
|---|---|
| Airport | Gran Canaria Airport (GCLP) |
Arrival
| Time | N/A |
|---|---|
| Airport | Frankfurt Main Airport (EDDF) |
| Time | Latitude | Longitude | Altitude | Speed | Heading |
|---|---|---|---|---|---|
| 2026-05-04 06:15 | 27.93773 | -15.38855 | 87 ft | 0 kts | 291° |
| 2026-05-04 06:25 | 27.93773 | -15.38854 | 85 ft | 0 kts | 291° |
| 2026-05-04 06:48 | 27.93789 | -15.38750 | 86 ft | 2 kts | 201° |
| 2026-05-04 06:50 | 27.93779 | -15.38754 | 87 ft | 6 kts | 201° |
| 2026-05-04 06:51 | 27.93705 | -15.38787 | 86 ft | 14 kts | 201° |
| 2026-05-04 06:51 | 27.93617 | -15.38826 | 84 ft | 13 kts | 201° |
| 2026-05-04 06:51 | 27.93541 | -15.38860 | 84 ft | 11 kts | 201° |
| 2026-05-04 06:51 | 27.93458 | -15.38869 | 82 ft | 16 kts | 154° |
| 2026-05-04 06:52 | 27.93380 | -15.38773 | 74 ft | 17 kts | 187° |
| 2026-05-04 06:52 | 27.93273 | -15.38813 | 73 ft | 15 kts | 201° |
| 2026-05-04 06:52 | 27.93136 | -15.38876 | 66 ft | 27 kts | 205° |
| 2026-05-04 06:52 | 27.92973 | -15.38952 | 71 ft | 24 kts | 201° |
| 2026-05-04 06:53 | 27.92825 | -15.39018 | 86 ft | 21 kts | 201° |
| 2026-05-04 06:53 | 27.92699 | -15.39073 | 87 ft | 19 kts | 202° |
| 2026-05-04 06:53 | 27.92571 | -15.39130 | 93 ft | 21 kts | 200° |
| 2026-05-04 06:53 | 27.92424 | -15.39195 | 96 ft | 22 kts | 201° |
| 2026-05-04 06:54 | 27.92295 | -15.39251 | 101 ft | 18 kts | 201° |
| 2026-05-04 06:54 | 27.92181 | -15.39301 | 98 ft | 19 kts | 199° |
| 2026-05-04 06:54 | 27.92042 | -15.39298 | 92 ft | 21 kts | 175° |
| 2026-05-04 06:54 | 27.91917 | -15.39260 | 88 ft | 15 kts | 117° |
| 2026-05-04 06:55 | 27.91976 | -15.39194 | 86 ft | 11 kts | 20° |
| 2026-05-04 06:55 | 27.92046 | -15.39164 | 86 ft | 27 kts | 22° |
| 2026-05-04 06:55 | 27.92455 | -15.38983 | 72 ft | 96 kts | 21° |
| 2026-05-04 06:55 | 27.93259 | -15.38628 | 60 ft | 150 kts | 21° |
| 2026-05-04 06:56 | 27.94291 | -15.38160 | 465 ft | 158 kts | 21° |
| 2026-05-04 06:57 | 28.03413 | -15.34221 | 3517 ft | 253 kts | 21° |
| 2026-05-04 06:58 | 28.05080 | -15.33510 | 4253 ft | 258 kts | 21° |
| 2026-05-04 06:58 | 28.06779 | -15.32777 | 4956 ft | 264 kts | 20° |
| 2026-05-04 06:58 | 28.08521 | -15.32021 | 5603 ft | 272 kts | 20° |
| 2026-05-04 06:58 | 28.10310 | -15.31242 | 6281 ft | 278 kts | 19° |
| 2026-05-04 06:59 | 28.12134 | -15.30447 | 6933 ft | 283 kts | 19° |
| 2026-05-04 06:59 | 28.13989 | -15.29640 | 7615 ft | 287 kts | 17° |
| 2026-05-04 06:59 | 28.15883 | -15.28991 | 8303 ft | 289 kts | 12° |
| 2026-05-04 06:59 | 28.17844 | -15.28413 | 9000 ft | 292 kts | 10° |
| 2026-05-04 07:01 | 28.33537 | -15.23630 | 11992 ft | 378 kts | 24° |
| 2026-05-04 07:01 | 28.35793 | -15.22033 | 12569 ft | 385 kts | 30° |
| 2026-05-04 07:02 | 28.38034 | -15.20342 | 13152 ft | 389 kts | 29° |
| 2026-05-04 07:02 | 28.40306 | -15.18638 | 13702 ft | 394 kts | 29° |
| 2026-05-04 07:02 | 28.42580 | -15.16943 | 14196 ft | 399 kts | 29° |
| 2026-05-04 07:02 | 28.44912 | -15.15208 | 14708 ft | 402 kts | 29° |
| 2026-05-04 07:03 | 28.47261 | -15.13455 | 15231 ft | 405 kts | 29° |
| 2026-05-04 07:03 | 28.49626 | -15.11683 | 15744 ft | 409 kts | 30° |
| 2026-05-04 07:03 | 28.52009 | -15.09895 | 16258 ft | 412 kts | 30° |
| 2026-05-04 07:03 | 28.54410 | -15.08095 | 16771 ft | 415 kts | 30° |
| 2026-05-04 07:04 | 28.56831 | -15.06279 | 17288 ft | 418 kts | 30° |
| 2026-05-04 07:04 | 28.59273 | -15.04446 | 17790 ft | 421 kts | 30° |
| 2026-05-04 07:04 | 28.61727 | -15.02603 | 18290 ft | 425 kts | 30° |
| 2026-05-04 07:04 | 28.64209 | -15.00742 | 18737 ft | 428 kts | 30° |
| 2026-05-04 07:05 | 28.66706 | -14.98871 | 19159 ft | 431 kts | 30° |
| 2026-05-04 07:05 | 28.69218 | -14.96985 | 19581 ft | 434 kts | 30° |
| 2026-05-04 07:05 | 28.71748 | -14.95084 | 20033 ft | 437 kts | 30° |
| 2026-05-04 07:05 | 28.74294 | -14.93165 | 20470 ft | 440 kts | 30° |
| 2026-05-04 07:06 | 28.79439 | -14.89283 | 21260 ft | 447 kts | 30° |
| 2026-05-04 07:06 | 28.82043 | -14.87321 | 21640 ft | 450 kts | 30° |
| 2026-05-04 07:06 | 28.84632 | -14.85371 | 22012 ft | 453 kts | 30° |
| 2026-05-04 07:07 | 28.87275 | -14.83377 | 22379 ft | 457 kts | 30° |
| 2026-05-04 07:08 | 29.05334 | -14.69707 | 24537 ft | 475 kts | 29° |
| 2026-05-04 07:09 | 29.08062 | -14.67638 | 24811 ft | 477 kts | 29° |
| 2026-05-04 07:09 | 29.10836 | -14.65532 | 25083 ft | 480 kts | 29° |
| 2026-05-04 07:09 | 29.13625 | -14.63414 | 25351 ft | 482 kts | 29° |
| 2026-05-04 07:09 | 29.16420 | -14.61291 | 25611 ft | 484 kts | 29° |
| 2026-05-04 07:10 | 29.19233 | -14.59148 | 25867 ft | 487 kts | 29° |
| 2026-05-04 07:10 | 29.22058 | -14.56992 | 26120 ft | 489 kts | 29° |
| 2026-05-04 07:12 | 29.42132 | -14.41652 | 27850 ft | 502 kts | 29° |
| 2026-05-04 07:12 | 29.45041 | -14.39430 | 28067 ft | 504 kts | 29° |
| 2026-05-04 07:12 | 29.47962 | -14.37195 | 28282 ft | 505 kts | 29° |
| 2026-05-04 07:12 | 29.50893 | -14.34949 | 28491 ft | 507 kts | 29° |
| 2026-05-04 07:13 | 29.53827 | -14.32700 | 28687 ft | 509 kts | 29° |
| 2026-05-04 07:13 | 29.56778 | -14.30439 | 28892 ft | 510 kts | 29° |
| 2026-05-04 07:13 | 29.59737 | -14.28172 | 29066 ft | 512 kts | 29° |
| 2026-05-04 07:14 | 29.71533 | -14.19094 | 30094 ft | 510 kts | 29° |
| 2026-05-04 07:14 | 29.74481 | -14.16819 | 30317 ft | 510 kts | 29° |
| 2026-05-04 07:15 | 29.77429 | -14.14545 | 30522 ft | 510 kts | 29° |
| 2026-05-04 07:15 | 29.80376 | -14.12271 | 30727 ft | 510 kts | 29° |
| 2026-05-04 07:15 | 29.83325 | -14.09995 | 30923 ft | 510 kts | 29° |
| 2026-05-04 07:15 | 29.86271 | -14.07720 | 31122 ft | 510 kts | 29° |
| 2026-05-04 07:16 | 29.89219 | -14.05438 | 31323 ft | 510 kts | 29° |
| 2026-05-04 07:16 | 29.92161 | -14.03153 | 31521 ft | 510 kts | 29° |
| 2026-05-04 07:16 | 29.95103 | -14.00870 | 31732 ft | 510 kts | 29° |
| 2026-05-04 07:16 | 29.98048 | -13.98584 | 31917 ft | 510 kts | 28° |
| 2026-05-04 07:17 | 30.00994 | -13.96297 | 32114 ft | 510 kts | 28° |
| 2026-05-04 07:17 | 30.03940 | -13.94011 | 32304 ft | 510 kts | 28° |
| 2026-05-04 07:17 | 30.06883 | -13.91724 | 32514 ft | 510 kts | 28° |
| 2026-05-04 07:17 | 30.09827 | -13.89434 | 32704 ft | 510 kts | 28° |
| 2026-05-04 07:18 | 30.12772 | -13.87144 | 32896 ft | 510 kts | 28° |
| 2026-05-04 07:18 | 30.15714 | -13.84853 | 33086 ft | 510 kts | 28° |
| 2026-05-04 07:18 | 30.18656 | -13.82562 | 33298 ft | 509 kts | 28° |
| 2026-05-04 07:18 | 30.21595 | -13.80273 | 33502 ft | 509 kts | 28° |
| 2026-05-04 07:19 | 30.24524 | -13.77989 | 33786 ft | 507 kts | 28° |
| 2026-05-04 07:19 | 30.27438 | -13.75714 | 34042 ft | 505 kts | 28° |
| 2026-05-04 07:19 | 30.33253 | -13.71166 | 34123 ft | 503 kts | 28° |
| 2026-05-04 07:20 | 30.39045 | -13.66615 | 34123 ft | 503 kts | 28° |
| 2026-05-04 07:20 | 30.44839 | -13.62075 | 34122 ft | 503 kts | 28° |
| 2026-05-04 07:22 | 30.67862 | -13.43811 | 34141 ft | 500 kts | 29° |
| 2026-05-04 07:23 | 30.73605 | -13.39239 | 34139 ft | 499 kts | 29° |
| 2026-05-04 07:23 | 30.79336 | -13.34671 | 34135 ft | 499 kts | 29° |
| 2026-05-04 07:24 | 30.85050 | -13.30081 | 34158 ft | 499 kts | 30° |
| 2026-05-04 07:24 | 30.90756 | -13.25504 | 34151 ft | 498 kts | 30° |
| 2026-05-04 07:26 | 31.13538 | -13.07385 | 34165 ft | 495 kts | 30° |
| 2026-05-04 07:27 | 31.19212 | -13.02844 | 34158 ft | 493 kts | 30° |
| 2026-05-04 07:27 | 31.24877 | -12.98313 | 34151 ft | 492 kts | 30° |
| 2026-05-04 07:28 | 31.30520 | -12.93798 | 34148 ft | 491 kts | 30° |
| 2026-05-04 07:28 | 31.36157 | -12.89278 | 34136 ft | 491 kts | 30° |
| 2026-05-04 07:29 | 31.41791 | -12.84756 | 34133 ft | 491 kts | 30° |
| 2026-05-04 07:29 | 31.47420 | -12.80232 | 34149 ft | 491 kts | 31° |
| 2026-05-04 07:30 | 31.53047 | -12.75698 | 34141 ft | 491 kts | 31° |
| 2026-05-04 07:30 | 31.58637 | -12.71185 | 34143 ft | 491 kts | 31° |
| 2026-05-04 07:31 | 31.64263 | -12.66636 | 34140 ft | 491 kts | 31° |
| 2026-05-04 07:33 | 31.86745 | -12.48397 | 34130 ft | 490 kts | 31° |
| 2026-05-04 07:33 | 31.92331 | -12.43857 | 34126 ft | 490 kts | 31° |
| 2026-05-04 07:34 | 31.97947 | -12.39284 | 34128 ft | 491 kts | 31° |
| 2026-05-04 07:34 | 32.03568 | -12.34713 | 34138 ft | 491 kts | 30° |
| 2026-05-04 07:35 | 32.09208 | -12.30126 | 34126 ft | 492 kts | 30° |
| 2026-05-04 07:35 | 32.14845 | -12.25531 | 34123 ft | 492 kts | 31° |
| 2026-05-04 07:36 | 32.20455 | -12.20953 | 34128 ft | 493 kts | 31° |
| 2026-05-04 07:38 | 32.43008 | -12.02438 | 34140 ft | 494 kts | 30° |
| 2026-05-04 07:38 | 32.48656 | -11.97795 | 34141 ft | 494 kts | 30° |
| 2026-05-04 07:39 | 32.54304 | -11.93144 | 34140 ft | 494 kts | 30° |
| 2026-05-04 07:39 | 32.59953 | -11.88484 | 34173 ft | 494 kts | 30° |
| 2026-05-04 07:40 | 32.65580 | -11.83818 | 34162 ft | 493 kts | 30° |
| 2026-05-04 07:40 | 32.71163 | -11.79190 | 34152 ft | 492 kts | 30° |
| 2026-05-04 07:41 | 32.76779 | -11.74539 | 34147 ft | 492 kts | 30° |
| 2026-05-04 07:41 | 32.82392 | -11.69881 | 34147 ft | 492 kts | 30° |
| 2026-05-04 07:42 | 32.87998 | -11.65213 | 34143 ft | 492 kts | 30° |
| 2026-05-04 07:42 | 32.93606 | -11.60532 | 34143 ft | 491 kts | 30° |
| 2026-05-04 07:43 | 32.99205 | -11.55863 | 34149 ft | 491 kts | 30° |
| 2026-05-04 07:43 | 33.04801 | -11.51178 | 34138 ft | 491 kts | 30° |
| 2026-05-04 07:44 | 33.10360 | -11.46516 | 34137 ft | 491 kts | 30° |
| 2026-05-04 07:44 | 33.15954 | -11.41822 | 34154 ft | 491 kts | 30° |
| 2026-05-04 07:45 | 33.21540 | -11.37121 | 34158 ft | 491 kts | 30° |
| 2026-05-04 07:45 | 33.27109 | -11.32399 | 34161 ft | 491 kts | 30° |
| 2026-05-04 07:46 | 33.32674 | -11.27670 | 34155 ft | 490 kts | 30° |
| 2026-05-04 07:46 | 33.38226 | -11.22937 | 34148 ft | 490 kts | 30° |
| 2026-05-04 07:47 | 33.43781 | -11.18207 | 34163 ft | 490 kts | 30° |
| 2026-05-04 07:49 | 33.66012 | -10.99199 | 34132 ft | 491 kts | 30° |
| 2026-05-04 07:49 | 33.71564 | -10.94434 | 34131 ft | 491 kts | 30° |
| 2026-05-04 07:50 | 33.77091 | -10.89678 | 34137 ft | 492 kts | 29° |
| 2026-05-04 07:50 | 33.82663 | -10.84873 | 34121 ft | 493 kts | 29° |
| 2026-05-04 07:51 | 33.88246 | -10.80063 | 34119 ft | 494 kts | 29° |
| 2026-05-04 07:51 | 33.93828 | -10.75230 | 34119 ft | 494 kts | 29° |
| 2026-05-04 07:52 | 33.99420 | -10.70380 | 34123 ft | 495 kts | 29° |
| 2026-05-04 07:52 | 34.05010 | -10.65531 | 34145 ft | 496 kts | 28° |
| 2026-05-04 07:54 | 34.27411 | -10.46041 | 34126 ft | 498 kts | 28° |
| 2026-05-04 07:55 | 34.33027 | -10.41126 | 34166 ft | 498 kts | 29° |
| 2026-05-04 07:55 | 34.38636 | -10.36203 | 34163 ft | 497 kts | 29° |
| 2026-05-04 07:56 | 34.43293 | -10.32119 | 34160 ft | 497 kts | 29° |
| 2026-05-04 07:56 | 34.48893 | -10.27204 | 34153 ft | 497 kts | 29° |
| 2026-05-04 07:57 | 34.54486 | -10.22273 | 34147 ft | 497 kts | 29° |
| 2026-05-04 07:57 | 34.60073 | -10.17340 | 34180 ft | 496 kts | 29° |
| 2026-05-04 07:58 | 34.65658 | -10.12423 | 34173 ft | 495 kts | 29° |
| 2026-05-04 07:58 | 34.71244 | -10.07523 | 34159 ft | 494 kts | 29° |
| 2026-05-04 07:59 | 34.76815 | -10.02632 | 34146 ft | 494 kts | 29° |
| 2026-05-04 07:59 | 34.82344 | -9.97756 | 34142 ft | 494 kts | 29° |
| 2026-05-04 08:00 | 34.87904 | -9.92845 | 34184 ft | 493 kts | 29° |
| 2026-05-04 08:02 | 35.10117 | -9.73113 | 34130 ft | 495 kts | 29° |
| 2026-05-04 08:02 | 35.15716 | -9.68143 | 34118 ft | 499 kts | 29° |
| 2026-05-04 08:03 | 35.21333 | -9.63136 | 34113 ft | 501 kts | 29° |
| 2026-05-04 08:03 | 35.26936 | -9.58117 | 34115 ft | 503 kts | 29° |
| 2026-05-04 08:04 | 35.32594 | -9.53051 | 34122 ft | 504 kts | 29° |
| 2026-05-04 08:04 | 35.38253 | -9.47975 | 34155 ft | 504 kts | 29° |
| 2026-05-04 08:05 | 35.43919 | -9.42878 | 34144 ft | 506 kts | 29° |
| 2026-05-04 08:05 | 35.49597 | -9.37754 | 34122 ft | 507 kts | 29° |
| 2026-05-04 08:06 | 35.55285 | -9.32616 | 34121 ft | 508 kts | 29° |
| 2026-05-04 08:06 | 35.60951 | -9.27509 | 34123 ft | 508 kts | 29° |
| 2026-05-04 08:08 | 35.83738 | -9.06815 | 34118 ft | 509 kts | 30° |
| 2026-05-04 08:10 | 36.04871 | -8.83247 | 34112 ft | 523 kts | 44° |
| 2026-05-04 08:11 | 36.07245 | -8.79836 | 34114 ft | 523 kts | 44° |
| 2026-05-04 08:11 | 36.14375 | -8.69583 | 34105 ft | 524 kts | 44° |
| 2026-05-04 08:12 | 36.19121 | -8.62740 | 34150 ft | 524 kts | 44° |
| 2026-05-04 08:12 | 36.23865 | -8.55877 | 34127 ft | 525 kts | 45° |
| 2026-05-04 08:13 | 36.28611 | -8.48999 | 34120 ft | 525 kts | 45° |
| 2026-05-04 08:13 | 36.33358 | -8.42106 | 34117 ft | 526 kts | 45° |
| 2026-05-04 08:14 | 36.38073 | -8.35243 | 34113 ft | 526 kts | 45° |
| 2026-05-04 08:16 | 36.57049 | -8.07499 | 34134 ft | 527 kts | 45° |
| 2026-05-04 08:16 | 36.61791 | -8.00543 | 34131 ft | 527 kts | 45° |
| 2026-05-04 08:17 | 36.66523 | -7.93578 | 34127 ft | 527 kts | 45° |
| 2026-05-04 08:17 | 36.71247 | -7.86599 | 34122 ft | 527 kts | 45° |
| 2026-05-04 08:19 | 36.90000 | -7.58768 | 34132 ft | 523 kts | 46° |
| 2026-05-04 08:20 | 36.94669 | -7.51797 | 34112 ft | 523 kts | 46° |
| 2026-05-04 08:20 | 36.99337 | -7.44818 | 34106 ft | 523 kts | 46° |
| 2026-05-04 08:21 | 37.04012 | -7.37835 | 34136 ft | 522 kts | 46° |
| 2026-05-04 08:21 | 37.08688 | -7.30874 | 34131 ft | 521 kts | 46° |
| 2026-05-04 08:22 | 37.13359 | -7.23934 | 34123 ft | 521 kts | 46° |
| 2026-05-04 08:24 | 37.32022 | -6.96031 | 34126 ft | 522 kts | 46° |
| 2026-05-04 08:24 | 37.36676 | -6.89034 | 34122 ft | 522 kts | 46° |
| 2026-05-04 08:25 | 37.41323 | -6.82025 | 34100 ft | 522 kts | 47° |
| 2026-05-04 08:25 | 37.45966 | -6.75001 | 34087 ft | 522 kts | 47° |
| 2026-05-04 08:27 | 37.64496 | -6.46878 | 34076 ft | 523 kts | 47° |
| 2026-05-04 08:28 | 37.69136 | -6.39788 | 34062 ft | 523 kts | 47° |
| 2026-05-04 08:28 | 37.73769 | -6.32690 | 34060 ft | 524 kts | 47° |
| 2026-05-04 08:29 | 37.78411 | -6.25571 | 34062 ft | 524 kts | 47° |
| 2026-05-04 08:31 | 37.96931 | -5.96985 | 34057 ft | 527 kts | 48° |
| 2026-05-04 08:33 | 38.15174 | -5.67754 | 34047 ft | 529 kts | 49° |
| 2026-05-04 08:35 | 38.33392 | -5.38357 | 34048 ft | 530 kts | 49° |
| 2026-05-04 08:35 | 38.37949 | -5.30954 | 34023 ft | 530 kts | 50° |
| 2026-05-04 08:37 | 38.54297 | -5.05598 | 34061 ft | 526 kts | 41° |
| 2026-05-04 08:38 | 38.59506 | -4.99075 | 34062 ft | 526 kts | 41° |
| 2026-05-04 08:38 | 38.64746 | -4.92509 | 34035 ft | 526 kts | 41° |
| 2026-05-04 08:40 | 38.85641 | -4.66110 | 34031 ft | 528 kts | 41° |
| 2026-05-04 08:41 | 38.90840 | -4.59499 | 34025 ft | 529 kts | 42° |
| 2026-05-04 08:41 | 38.96073 | -4.52828 | 34012 ft | 529 kts | 42° |
| 2026-05-04 08:42 | 39.01304 | -4.46156 | 34015 ft | 529 kts | 42° |
| 2026-05-04 08:42 | 39.06536 | -4.39467 | 34046 ft | 530 kts | 42° |
| 2026-05-04 08:43 | 39.11740 | -4.32788 | 34030 ft | 531 kts | 42° |
| 2026-05-04 08:43 | 39.16979 | -4.26043 | 34013 ft | 532 kts | 42° |
| 2026-05-04 08:44 | 39.22212 | -4.19297 | 34004 ft | 532 kts | 42° |
| 2026-05-04 08:46 | 39.42248 | -3.93357 | 33998 ft | 533 kts | 43° |
| 2026-05-04 08:46 | 39.47486 | -3.86541 | 33996 ft | 533 kts | 43° |
| 2026-05-04 08:47 | 39.52702 | -3.79740 | 34016 ft | 534 kts | 43° |
| 2026-05-04 08:47 | 39.57939 | -3.72892 | 33995 ft | 534 kts | 43° |
| 2026-05-04 08:48 | 39.63172 | -3.66022 | 33988 ft | 535 kts | 43° |
| 2026-05-04 08:48 | 39.68410 | -3.59146 | 33989 ft | 536 kts | 43° |
| 2026-05-04 08:49 | 39.73654 | -3.52247 | 33998 ft | 536 kts | 43° |
| 2026-05-04 08:50 | 39.91368 | -3.35029 | 34002 ft | 530 kts | 30° |
| 2026-05-04 08:50 | 39.94446 | -3.32375 | 34005 ft | 530 kts | 30° |
| 2026-05-04 08:51 | 40.00598 | -3.27063 | 34047 ft | 531 kts | 30° |
| 2026-05-04 08:51 | 40.06768 | -3.21729 | 34023 ft | 531 kts | 30° |
| 2026-05-04 08:52 | 40.12930 | -3.16395 | 34014 ft | 531 kts | 30° |
| 2026-05-04 08:52 | 40.19089 | -3.11046 | 34010 ft | 532 kts | 30° |
| 2026-05-04 08:54 | 40.43701 | -2.89572 | 34006 ft | 530 kts | 31° |
| 2026-05-04 08:55 | 40.49796 | -2.84206 | 34021 ft | 530 kts | 31° |
| 2026-05-04 08:55 | 40.55937 | -2.78809 | 34010 ft | 530 kts | 31° |
| 2026-05-04 09:01 | 41.19185 | -2.19630 | 33979 ft | 533 kts | 37° |
| 2026-05-04 09:01 | 41.24960 | -2.13449 | 33984 ft | 533 kts | 36° |
| 2026-05-04 09:02 | 41.30767 | -2.07321 | 33988 ft | 533 kts | 36° |
| 2026-05-04 09:02 | 41.36524 | -2.01200 | 34019 ft | 532 kts | 37° |
| 2026-05-04 09:03 | 41.42284 | -1.95000 | 34002 ft | 532 kts | 37° |
| 2026-05-04 09:03 | 41.48026 | -1.88790 | 33953 ft | 531 kts | 37° |
| 2026-05-04 09:04 | 41.53775 | -1.82580 | 33978 ft | 532 kts | 37° |
| 2026-05-04 09:04 | 41.59523 | -1.76371 | 33993 ft | 531 kts | 37° |
| 2026-05-04 09:05 | 41.65268 | -1.70145 | 33991 ft | 531 kts | 37° |
| 2026-05-04 09:05 | 41.71005 | -1.63914 | 33977 ft | 531 kts | 37° |
| 2026-05-04 09:06 | 41.76743 | -1.57661 | 34008 ft | 531 kts | 38° |
| 2026-05-04 09:08 | 41.99532 | -1.32687 | 34009 ft | 528 kts | 38° |
| 2026-05-04 09:08 | 42.05220 | -1.26430 | 34001 ft | 528 kts | 38° |
| 2026-05-04 09:09 | 42.10903 | -1.20154 | 34000 ft | 528 kts | 38° |
| 2026-05-04 09:09 | 42.16580 | -1.13871 | 33956 ft | 528 kts | 38° |
| 2026-05-04 09:10 | 42.22250 | -1.07565 | 33994 ft | 528 kts | 38° |
| 2026-05-04 09:10 | 42.27912 | -1.01256 | 34004 ft | 527 kts | 38° |
| 2026-05-04 09:11 | 42.33541 | -0.94990 | 34002 ft | 527 kts | 38° |
| 2026-05-04 09:11 | 42.36366 | -0.91835 | 34159 ft | 526 kts | 38° |
| 2026-05-04 09:11 | 42.39184 | -0.88677 | 34330 ft | 526 kts | 38° |
| 2026-05-04 09:11 | 42.41953 | -0.85463 | 34536 ft | 524 kts | 43° |
| 2026-05-04 09:12 | 42.44424 | -0.81838 | 34690 ft | 523 kts | 52° |
| 2026-05-04 09:12 | 42.46643 | -0.77940 | 34840 ft | 522 kts | 53° |
| 2026-05-04 09:14 | 42.62114 | -0.50664 | 35833 ft | 519 kts | 53° |
| 2026-05-04 09:14 | 42.64304 | -0.46781 | 35968 ft | 518 kts | 53° |
| 2026-05-04 09:14 | 42.66488 | -0.42895 | 35989 ft | 517 kts | 53° |
| 2026-05-04 09:15 | 42.70844 | -0.35128 | 35978 ft | 516 kts | 53° |
| 2026-05-04 09:15 | 42.75198 | -0.27359 | 35987 ft | 516 kts | 53° |
| 2026-05-04 09:17 | 42.95472 | 0.06894 | 35964 ft | 515 kts | 51° |
| 2026-05-04 09:18 | 42.99994 | 0.14486 | 35978 ft | 516 kts | 51° |
| 2026-05-04 09:18 | 43.04511 | 0.22108 | 36000 ft | 515 kts | 51° |
| 2026-05-04 09:19 | 43.07695 | 0.27474 | 35991 ft | 514 kts | 51° |
| 2026-05-04 09:19 | 43.10487 | 0.32168 | 35993 ft | 514 kts | 51° |
| 2026-05-04 09:20 | 43.14964 | 0.39723 | 35950 ft | 514 kts | 51° |
| 2026-05-04 09:20 | 43.19464 | 0.47344 | 35966 ft | 514 kts | 51° |
| 2026-05-04 09:21 | 43.23961 | 0.54973 | 35995 ft | 515 kts | 51° |
| 2026-05-04 09:21 | 43.28462 | 0.62613 | 35995 ft | 515 kts | 52° |
| 2026-05-04 09:22 | 43.32949 | 0.70285 | 35995 ft | 514 kts | 52° |
| 2026-05-04 09:22 | 43.37423 | 0.77956 | 35963 ft | 514 kts | 52° |
| 2026-05-04 09:23 | 43.41894 | 0.85640 | 35975 ft | 514 kts | 52° |
| 2026-05-04 09:23 | 43.46358 | 0.93317 | 35994 ft | 513 kts | 52° |
| 2026-05-04 09:25 | 43.64010 | 1.23863 | 35991 ft | 510 kts | 52° |
| 2026-05-04 09:26 | 43.66341 | 1.27932 | 35993 ft | 509 kts | 52° |
| 2026-05-04 09:26 | 43.70697 | 1.35651 | 35994 ft | 508 kts | 54° |
| 2026-05-04 09:27 | 43.74884 | 1.43516 | 35989 ft | 508 kts | 55° |
| 2026-05-04 09:27 | 43.79019 | 1.51437 | 35987 ft | 508 kts | 55° |
| 2026-05-04 09:28 | 43.82452 | 1.57963 | 35988 ft | 508 kts | 55° |
| 2026-05-04 09:28 | 43.86628 | 1.65828 | 36331 ft | 501 kts | 55° |
| 2026-05-04 09:29 | 43.88703 | 1.69734 | 36109 ft | 504 kts | 55° |
| 2026-05-04 09:29 | 43.90785 | 1.73660 | 35950 ft | 505 kts | 55° |
| 2026-05-04 09:29 | 43.94942 | 1.81534 | 35976 ft | 506 kts | 55° |
| 2026-05-04 09:30 | 43.99030 | 1.89490 | 35986 ft | 506 kts | 57° |
| 2026-05-04 09:30 | 44.03015 | 1.97574 | 36002 ft | 508 kts | 57° |
| 2026-05-04 09:31 | 44.06981 | 2.05650 | 36004 ft | 509 kts | 57° |
| 2026-05-04 09:31 | 44.10995 | 2.13768 | 36004 ft | 509 kts | 57° |
| 2026-05-04 09:32 | 44.15016 | 2.21881 | 36010 ft | 509 kts | 57° |
| 2026-05-04 09:34 | 44.31014 | 2.54472 | 36014 ft | 508 kts | 57° |
| 2026-05-04 09:34 | 44.34996 | 2.62633 | 36010 ft | 508 kts | 57° |
| 2026-05-04 09:35 | 44.38966 | 2.70805 | 35991 ft | 508 kts | 58° |
| 2026-05-04 09:35 | 44.42922 | 2.78979 | 36012 ft | 507 kts | 58° |
| 2026-05-04 09:37 | 44.58704 | 3.11767 | 36046 ft | 507 kts | 58° |
| 2026-05-04 09:38 | 44.62546 | 3.20042 | 36053 ft | 505 kts | 61° |
| 2026-05-04 09:38 | 44.66011 | 3.28602 | 36058 ft | 503 kts | 64° |
| 2026-05-04 09:39 | 44.69283 | 3.37213 | 36061 ft | 503 kts | 64° |
| 2026-05-04 09:39 | 44.72648 | 3.45844 | 36055 ft | 503 kts | 63° |
| 2026-05-04 09:40 | 44.76078 | 3.54414 | 36063 ft | 503 kts | 63° |
| 2026-05-04 09:40 | 44.79520 | 3.62987 | 36053 ft | 503 kts | 63° |
| 2026-05-04 09:42 | 44.93085 | 3.97465 | 36074 ft | 502 kts | 63° |
| 2026-05-04 09:43 | 44.96441 | 4.06041 | 36071 ft | 502 kts | 63° |
| 2026-05-04 09:43 | 44.99809 | 4.14675 | 36078 ft | 501 kts | 64° |
| 2026-05-04 09:44 | 45.03157 | 4.23309 | 36045 ft | 501 kts | 63° |
| 2026-05-04 09:46 | 45.16475 | 4.57870 | 36072 ft | 499 kts | 64° |
| 2026-05-04 09:46 | 45.19779 | 4.66527 | 36053 ft | 499 kts | 64° |
| 2026-05-04 09:47 | 45.23078 | 4.75177 | 36056 ft | 498 kts | 64° |
| 2026-05-04 09:49 | 45.36187 | 5.09846 | 36085 ft | 497 kts | 64° |
| 2026-05-04 09:51 | 45.47590 | 5.40178 | 36098 ft | 497 kts | 59° |
| 2026-05-04 09:51 | 45.51985 | 5.47818 | 36077 ft | 499 kts | 43° |
| 2026-05-04 09:52 | 45.57142 | 5.54370 | 36064 ft | 500 kts | 42° |
| 2026-05-04 09:52 | 45.62321 | 5.60992 | 36060 ft | 500 kts | 42° |
| 2026-05-04 09:53 | 45.67505 | 5.67656 | 36089 ft | 500 kts | 42° |
| 2026-05-04 09:53 | 45.72674 | 5.74312 | 36067 ft | 500 kts | 42° |
| 2026-05-04 09:54 | 45.77859 | 5.80980 | 36077 ft | 500 kts | 42° |
| 2026-05-04 09:54 | 45.83010 | 5.87597 | 36092 ft | 500 kts | 42° |
| 2026-05-04 09:54 | 45.85599 | 5.90928 | 36200 ft | 500 kts | 42° |
| 2026-05-04 09:55 | 45.88183 | 5.94260 | 36362 ft | 498 kts | 42° |
| 2026-05-04 09:55 | 45.90753 | 5.97577 | 36548 ft | 496 kts | 42° |
| 2026-05-04 09:55 | 45.93314 | 6.00891 | 36712 ft | 495 kts | 42° |
| 2026-05-04 09:55 | 45.95867 | 6.04202 | 36845 ft | 494 kts | 42° |
| 2026-05-04 09:56 | 45.98413 | 6.07509 | 37011 ft | 493 kts | 41° |
| 2026-05-04 09:56 | 46.03508 | 6.14138 | 37077 ft | 494 kts | 42° |
| 2026-05-04 09:57 | 46.08605 | 6.20788 | 37077 ft | 494 kts | 42° |
| 2026-05-04 09:57 | 46.13558 | 6.27552 | 37077 ft | 494 kts | 45° |
| 2026-05-04 09:58 | 46.18413 | 6.34575 | 37075 ft | 494 kts | 45° |
| 2026-05-04 09:58 | 46.23255 | 6.41604 | 37052 ft | 493 kts | 45° |
| 2026-05-04 10:00 | 46.42743 | 6.69518 | 37052 ft | 493 kts | 45° |
| 2026-05-04 10:04 | 46.74272 | 7.21762 | 37052 ft | 491 kts | 51° |
| 2026-05-04 10:04 | 46.78562 | 7.29549 | 37052 ft | 491 kts | 51° |
| 2026-05-04 10:05 | 46.82799 | 7.37287 | 37037 ft | 490 kts | 51° |
| 2026-05-04 10:05 | 46.87057 | 7.45078 | 37052 ft | 489 kts | 51° |
| 2026-05-04 10:06 | 46.91307 | 7.52875 | 37045 ft | 489 kts | 51° |
| 2026-05-04 10:06 | 46.95533 | 7.60662 | 37046 ft | 488 kts | 52° |
| 2026-05-04 10:08 | 47.10196 | 7.87851 | 37036 ft | 486 kts | 52° |
| 2026-05-04 10:08 | 47.14269 | 7.95770 | 37036 ft | 486 kts | 59° |
| 2026-05-04 10:09 | 47.17852 | 8.04196 | 37028 ft | 486 kts | 59° |
| 2026-05-04 10:09 | 47.21442 | 8.12638 | 37033 ft | 487 kts | 59° |
| 2026-05-04 10:10 | 47.25019 | 8.21043 | 37035 ft | 487 kts | 59° |
| 2026-05-04 10:10 | 47.28850 | 8.29281 | 37043 ft | 488 kts | 48° |
| 2026-05-04 10:11 | 47.33987 | 8.35756 | 37048 ft | 486 kts | 30° |
| 2026-05-04 10:11 | 47.39994 | 8.40212 | 37046 ft | 484 kts | 24° |
| 2026-05-04 10:12 | 47.46075 | 8.44506 | 37039 ft | 484 kts | 24° |
| 2026-05-04 10:12 | 47.51121 | 8.48094 | 37044 ft | 484 kts | 24° |
| 2026-05-04 10:13 | 47.58182 | 8.53131 | 37041 ft | 485 kts | 24° |
| 2026-05-04 10:13 | 47.64278 | 8.57484 | 37041 ft | 485 kts | 24° |
| 2026-05-04 10:14 | 47.69339 | 8.61097 | 37055 ft | 486 kts | 24° |
| 2026-05-04 10:16 | 47.93730 | 8.78656 | 37051 ft | 487 kts | 24° |
| 2026-05-04 10:16 | 47.99786 | 8.83043 | 37045 ft | 486 kts | 24° |
| 2026-05-04 10:17 | 48.05881 | 8.87462 | 37042 ft | 486 kts | 24° |
| 2026-05-04 10:19 | 48.28177 | 8.97102 | 36185 ft | 479 kts | 2° |
| 2026-05-04 10:19 | 48.31506 | 8.97609 | 35935 ft | 480 kts | 2° |
| 2026-05-04 10:19 | 48.34828 | 8.98112 | 35681 ft | 478 kts | 2° |
| 2026-05-04 10:19 | 48.38127 | 8.98612 | 35345 ft | 475 kts | 2° |
| 2026-05-04 10:20 | 48.41430 | 8.99109 | 34723 ft | 474 kts | 2° |
| 2026-05-04 10:20 | 48.44720 | 8.99602 | 34181 ft | 475 kts | 1° |
| 2026-05-04 10:20 | 48.48007 | 9.00097 | 33610 ft | 476 kts | 2° |
| 2026-05-04 10:20 | 48.51312 | 9.00600 | 33008 ft | 477 kts | 2° |
| 2026-05-04 10:21 | 48.54582 | 9.01100 | 32438 ft | 478 kts | 2° |
| 2026-05-04 10:21 | 48.57901 | 9.01606 | 31866 ft | 479 kts | 3° |
| 2026-05-04 10:21 | 48.61212 | 9.02111 | 31299 ft | 476 kts | 3° |
| 2026-05-04 10:21 | 48.64502 | 9.02648 | 30748 ft | 473 kts | 4° |
| 2026-05-04 10:22 | 48.70978 | 9.04093 | 29602 ft | 467 kts | 7° |
| 2026-05-04 10:22 | 48.74174 | 9.04923 | 29001 ft | 463 kts | 8° |
| 2026-05-04 10:22 | 48.77342 | 9.05757 | 28397 ft | 458 kts | 7° |
| 2026-05-04 10:23 | 48.80428 | 9.06554 | 27811 ft | 454 kts | 7° |
| 2026-05-04 10:23 | 48.83535 | 9.07327 | 27233 ft | 450 kts | 7° |